createdAt,value
2018-02-14T00:00:36.456Z,95666.73
2018-02-14T00:03:04.062Z,95659.27
2018-02-14T00:05:31.728Z,95660.59
2018-02-14T00:07:59.305Z,95662.67
2018-02-14T00:10:26.890Z,95660.95
2018-02-14T00:12:54.482Z,95659.76
2018-02-14T00:15:22.122Z,95658.34
2018-02-14T00:17:49.715Z,95664.00
2018-02-14T00:20:17.298Z,95659.23
2018-02-14T00:22:44.866Z,95664.70
2018-02-14T00:25:12.619Z,95666.81
2018-02-14T00:27:40.187Z,95670.44
2018-02-14T00:30:07.768Z,95670.05
2018-02-14T00:32:35.469Z,95669.19
2018-02-14T00:35:03.009Z,95665.42
2018-02-14T00:37:30.605Z,95664.15
2018-02-14T00:39:58.168Z,95668.43
2018-02-14T00:42:25.737Z,95669.83
2018-02-14T00:44:55.020Z,95676.16
2018-02-14T00:47:23.043Z,95676.16
2018-02-14T00:49:50.642Z,95670.64
2018-02-14T00:52:18.229Z,95670.36
2018-02-14T00:54:45.937Z,95676.52
2018-02-14T00:57:13.620Z,95678.66
2018-02-14T00:59:41.168Z,95676.50
2018-02-14T01:02:08.776Z,95681.59
2018-02-14T01:04:36.354Z,95679.87
2018-02-14T01:07:04.018Z,95681.28
2018-02-14T01:09:31.678Z,95685.19
2018-02-14T01:11:59.261Z,95682.51
2018-02-14T01:14:26.833Z,95684.02
2018-02-14T01:16:54.423Z,95682.05
2018-02-14T01:19:22.007Z,95680.16
2018-02-14T01:21:50.523Z,95675.33
2018-02-14T01:24:18.280Z,95681.37
2018-02-14T01:26:45.855Z,95674.38
2018-02-14T01:29:13.675Z,95682.51
2018-02-14T01:31:41.315Z,95675.44
2018-02-14T01:34:08.904Z,95674.66
2018-02-14T01:36:36.462Z,95673.68
2018-02-14T01:39:04.109Z,95678.50
2018-02-14T01:41:31.706Z,95672.34
2018-02-14T01:43:59.300Z,95671.05
2018-02-14T01:46:26.877Z,95667.18
2018-02-14T01:48:54.478Z,95670.31
2018-02-14T01:51:22.055Z,95668.09
2018-02-14T01:53:49.671Z,95677.66
2018-02-14T01:56:17.260Z,95670.54
2018-02-14T01:58:44.821Z,95666.15
2018-02-14T02:01:12.379Z,95667.53
2018-02-14T02:03:40.035Z,95672.28
2018-02-14T02:06:07.610Z,95665.71
2018-02-14T02:08:35.230Z,95666.90
2018-02-14T02:11:02.855Z,95669.53
2018-02-14T02:13:30.454Z,95661.69
2018-02-14T02:15:58.023Z,95668.88
2018-02-14T02:18:25.633Z,95665.66
2018-02-14T02:20:53.215Z,95665.59
2018-02-14T02:23:20.809Z,95667.22
2018-02-14T02:25:48.403Z,95659.76
2018-02-14T02:28:15.966Z,95663.91
2018-02-14T02:30:43.569Z,95670.21
2018-02-14T02:33:11.577Z,95664.33
2018-02-14T02:35:39.127Z,95664.83
2018-02-14T02:38:06.867Z,95658.27
2018-02-14T02:40:34.522Z,95661.36
2018-02-14T02:43:02.097Z,95664.04
2018-02-14T02:45:29.693Z,95666.88
2018-02-14T02:47:57.258Z,95666.89
2018-02-14T02:50:24.822Z,95665.63
2018-02-14T02:52:52.422Z,95661.89
2018-02-14T02:55:25.882Z,95656.83
2018-02-14T02:57:53.951Z,95663.08
2018-02-14T03:00:21.519Z,95653.15
2018-02-14T03:02:49.093Z,95659.33
2018-02-14T03:05:16.683Z,95667.05
2018-02-14T03:07:44.274Z,95666.06
2018-02-14T03:10:11.855Z,95668.69
2018-02-14T03:12:39.548Z,95667.77
2018-02-14T03:15:07.156Z,95669.39
2018-02-14T03:17:34.761Z,95671.36
2018-02-14T03:20:02.548Z,95673.03
2018-02-14T03:22:30.137Z,95672.34
2018-02-14T03:24:57.822Z,95674.08
2018-02-14T03:27:25.389Z,95679.02
2018-02-14T03:29:53.002Z,95678.00
2018-02-14T03:32:20.580Z,95681.41
2018-02-14T03:34:48.179Z,95681.47
2018-02-14T03:37:17.054Z,95682.88
2018-02-14T03:39:44.604Z,95681.91
2018-02-14T03:42:12.169Z,95685.69
2018-02-14T03:44:39.767Z,95686.34
2018-02-14T03:47:07.376Z,95692.22
2018-02-14T03:49:34.975Z,95682.22
2018-02-14T03:52:02.588Z,95692.92
2018-02-14T03:54:30.186Z,95688.92
2018-02-14T03:56:57.757Z,95692.14
2018-02-14T03:59:25.570Z,95699.84
2018-02-14T04:01:53.153Z,95700.11
2018-02-14T04:04:20.735Z,95703.32
2018-02-14T04:06:48.301Z,95703.80
2018-02-14T04:09:15.880Z,95698.98
2018-02-14T04:11:43.454Z,95700.84
2018-02-14T04:14:11.025Z,95710.31
2018-02-14T04:16:38.595Z,95705.71
2018-02-14T04:19:06.214Z,95711.18
2018-02-14T04:21:33.775Z,95710.52
2018-02-14T04:24:01.378Z,95708.58
2018-02-14T04:26:28.971Z,95714.41
2018-02-14T04:28:56.570Z,95712.89
2018-02-14T04:31:24.388Z,95716.02
2018-02-14T04:33:51.954Z,95715.54
2018-02-14T04:36:19.558Z,95718.72
2018-02-14T04:38:47.267Z,95726.16
2018-02-14T04:41:14.840Z,95724.34
2018-02-14T04:43:44.208Z,95725.09
2018-02-14T04:46:11.793Z,95731.11
2018-02-14T04:48:39.522Z,95734.61
2018-02-14T04:51:07.155Z,95733.45
2018-02-14T04:53:34.810Z,95737.20
2018-02-14T04:56:02.379Z,95737.03
2018-02-14T04:58:29.958Z,95740.41
2018-02-14T05:00:57.641Z,95751.22
2018-02-14T05:03:25.234Z,95750.31
2018-02-14T05:08:43.195Z,95751.97
2018-02-14T05:11:11.435Z,95755.32
2018-02-14T05:13:39.008Z,95757.98
2018-02-14T05:16:06.578Z,95759.63
2018-02-14T05:18:34.135Z,95763.45
2018-02-14T05:21:01.733Z,95767.41
2018-02-14T05:23:29.870Z,95772.58
2018-02-14T05:25:57.456Z,95773.82
2018-02-14T05:28:25.014Z,95773.98
2018-02-14T05:30:52.640Z,95778.45
2018-02-14T05:33:20.191Z,95780.95
2018-02-14T05:35:47.769Z,95782.73
2018-02-14T05:38:15.493Z,95786.30
2018-02-14T05:40:43.060Z,95786.76
2018-02-14T05:43:11.018Z,95787.30
2018-02-14T05:45:38.918Z,95795.37
2018-02-14T05:48:06.517Z,95791.67
2018-02-14T05:50:34.081Z,95796.05
2018-02-14T05:53:01.675Z,95793.14
2018-02-14T05:55:29.264Z,95803.59
2018-02-14T05:57:56.829Z,95805.23
2018-02-14T06:00:24.400Z,95808.05
2018-02-14T06:02:52.044Z,95816.45
2018-02-14T06:05:19.854Z,95821.53
2018-02-14T06:07:47.423Z,95828.80
2018-02-14T06:10:14.992Z,95827.05
2018-02-14T06:12:42.556Z,95831.56
2018-02-14T06:15:10.566Z,95833.50
2018-02-14T06:17:38.184Z,95826.96
2018-02-14T06:20:05.769Z,95834.98
2018-02-14T06:22:33.353Z,95841.41
2018-02-14T06:25:00.961Z,95843.11
2018-02-14T06:27:29.038Z,95844.38
2018-02-14T06:29:56.643Z,95845.66
2018-02-14T06:32:25.496Z,95849.12
2018-02-14T06:34:53.074Z,95850.72
2018-02-14T06:37:20.806Z,95848.91
2018-02-14T06:39:48.418Z,95855.00
2018-02-14T06:42:15.987Z,95856.20
2018-02-14T06:44:43.568Z,95857.02
2018-02-14T06:47:11.415Z,95859.34
2018-02-14T06:49:38.990Z,95866.15
2018-02-14T06:52:06.563Z,95867.34
2018-02-14T06:54:34.148Z,95870.34
2018-02-14T06:57:01.738Z,95878.83
2018-02-14T06:59:29.332Z,95874.33
2018-02-14T07:01:56.935Z,95885.08
2018-02-14T07:04:25.213Z,95885.39
2018-02-14T07:06:54.325Z,95893.08
2018-02-14T07:09:22.355Z,95892.37
2018-02-14T07:11:51.220Z,95900.63
2018-02-14T07:14:18.775Z,95899.06
2018-02-14T07:16:46.347Z,95907.48
2018-02-14T07:19:14.162Z,95908.98
2018-02-14T07:21:42.768Z,95906.46
2018-02-14T07:24:10.392Z,95905.50
2018-02-14T07:26:38.812Z,95911.69
2018-02-14T07:29:06.590Z,95912.59
2018-02-14T07:31:34.151Z,95921.13
2018-02-14T07:34:02.114Z,95916.94
2018-02-14T07:36:29.750Z,95926.59
2018-02-14T07:38:58.788Z,95927.73
2018-02-14T07:41:26.486Z,95933.88
2018-02-14T07:43:55.102Z,95935.55
2018-02-14T07:46:22.688Z,95935.70
2018-02-14T07:48:50.256Z,95940.82
2018-02-14T07:51:19.782Z,95942.43
2018-02-14T07:53:47.540Z,95945.11
2018-02-14T07:56:15.270Z,95940.14
2018-02-14T07:58:42.826Z,95942.70
2018-02-14T08:01:10.393Z,95950.97
2018-02-14T08:03:37.964Z,95949.46
2018-02-14T08:06:05.512Z,95953.66
2018-02-14T08:08:33.097Z,95948.10
2018-02-14T08:11:00.880Z,95951.06
2018-02-14T08:13:28.494Z,95954.98
2018-02-14T08:15:56.073Z,95950.91
2018-02-14T08:18:24.426Z,95961.50
2018-02-14T08:20:52.023Z,95956.33
2018-02-14T08:23:19.604Z,95956.77
2018-02-14T08:25:47.223Z,95965.06
2018-02-14T08:28:14.788Z,95957.89
2018-02-14T08:30:42.365Z,95963.14
2018-02-14T08:33:10.553Z,95969.03
2018-02-14T08:35:39.284Z,95967.09
2018-02-14T08:38:06.843Z,95971.56
2018-02-14T08:40:34.395Z,95972.41
2018-02-14T08:43:01.997Z,95980.48
2018-02-14T08:45:29.546Z,95977.47
2018-02-14T08:47:57.122Z,95978.55
2018-02-14T08:50:24.828Z,95984.23
2018-02-14T08:52:52.376Z,95987.85
2018-02-14T08:55:19.974Z,95983.78
2018-02-14T08:57:47.534Z,95989.26
2018-02-14T09:00:15.127Z,95991.40
2018-02-14T09:02:42.705Z,95995.59
2018-02-14T09:05:10.668Z,95998.22
2018-02-14T09:07:38.252Z,96003.36
2018-02-14T09:10:05.830Z,96003.27
2018-02-14T09:12:33.376Z,95999.70
2018-02-14T09:15:00.917Z,96003.55
2018-02-14T09:17:28.799Z,96003.05
2018-02-14T09:19:56.442Z,95999.66
2018-02-14T09:22:24.702Z,96002.06
2018-02-14T09:24:52.270Z,96006.47
2018-02-14T09:27:19.839Z,96009.33
2018-02-14T09:29:47.462Z,96006.22
2018-02-14T09:32:15.098Z,96005.66
2018-02-14T09:34:42.677Z,96016.56
2018-02-14T09:37:10.969Z,96010.28
2018-02-14T09:39:38.620Z,96021.11
2018-02-14T09:42:06.181Z,96018.59
2018-02-14T09:44:33.733Z,96014.58
2018-02-14T09:47:01.335Z,96020.10
2018-02-14T09:49:30.150Z,96015.58
2018-02-14T09:51:57.728Z,96021.36
2018-02-14T09:54:25.440Z,96021.95
2018-02-14T09:56:53.057Z,96019.81
2018-02-14T09:59:21.164Z,96025.85
2018-02-14T10:01:48.900Z,96021.96
2018-02-14T10:04:16.451Z,96022.19
2018-02-14T10:06:44.005Z,96015.55
2018-02-14T10:09:11.865Z,96018.99
2018-02-14T10:11:39.835Z,96024.73
2018-02-14T10:14:07.448Z,96023.79
2018-02-14T10:16:35.135Z,96025.42
2018-02-14T10:19:02.703Z,96031.42
2018-02-14T10:21:30.718Z,96023.58
2018-02-14T10:23:58.299Z,96029.83
2018-02-14T10:26:26.341Z,96033.33
2018-02-14T10:28:53.925Z,96034.30
2018-02-14T10:31:21.542Z,96036.48
2018-02-14T10:33:49.128Z,96038.02
2018-02-14T10:36:16.703Z,96041.60
2018-02-14T10:38:44.269Z,96039.40
2018-02-14T10:41:12.164Z,96035.82
2018-02-14T10:43:39.781Z,96035.54
2018-02-14T10:46:07.336Z,96038.98
2018-02-14T10:48:34.907Z,96037.70
2018-02-14T10:51:02.537Z,96037.13
2018-02-14T10:53:30.691Z,96043.14
2018-02-14T10:55:58.264Z,96038.48
2018-02-14T10:58:25.834Z,96041.73
2018-02-14T11:00:58.957Z,96043.89
2018-02-14T11:03:32.919Z,96041.66
2018-02-14T11:06:06.613Z,96044.98
2018-02-14T11:08:34.325Z,96038.48
2018-02-14T11:11:01.893Z,96039.89
2018-02-14T11:13:29.474Z,96038.29
2018-02-14T11:15:57.451Z,96037.37
2018-02-14T11:18:25.090Z,96037.05
2018-02-14T11:20:52.709Z,96040.86
2018-02-14T11:23:20.308Z,96042.34
2018-02-14T11:25:47.861Z,96042.43
2018-02-14T11:28:15.439Z,96040.73
2018-02-14T11:30:43.967Z,96041.06
2018-02-14T11:33:13.627Z,96040.92
2018-02-14T11:35:41.238Z,96044.34
2018-02-14T11:38:08.805Z,96038.03
2018-02-14T11:40:36.370Z,96042.64
2018-02-14T11:43:03.958Z,96043.50
2018-02-14T11:45:31.527Z,96038.80
2018-02-14T11:47:59.166Z,96038.45
2018-02-14T11:50:26.787Z,96031.00
2018-02-14T11:52:54.383Z,96034.04
2018-02-14T11:55:21.946Z,96041.43
2018-02-14T11:57:49.572Z,96038.14
2018-02-14T12:00:17.160Z,96039.91
2018-02-14T12:02:44.708Z,96037.02
2018-02-14T12:05:12.738Z,96043.64
2018-02-14T12:07:40.377Z,96043.85
2018-02-14T12:10:07.949Z,96042.20
2018-02-14T12:12:35.565Z,96038.09
2018-02-14T12:15:03.218Z,96041.27
2018-02-14T12:17:30.794Z,96035.76
2018-02-14T12:19:58.387Z,96032.83
2018-02-14T12:22:26.400Z,96036.05
2018-02-14T12:24:53.959Z,96028.61
2018-02-14T12:27:21.681Z,96033.14
2018-02-14T12:29:49.269Z,96033.84
2018-02-14T12:32:16.861Z,96030.22
2018-02-14T12:34:44.444Z,96027.63
2018-02-14T12:37:12.808Z,96033.34
2018-02-14T12:39:40.383Z,96036.25
2018-02-14T12:42:07.999Z,96037.30
2018-02-14T12:44:35.576Z,96036.95
2018-02-14T12:47:03.200Z,96029.91
2018-02-14T12:49:30.796Z,96031.16
2018-02-14T12:51:58.399Z,96029.69
2018-02-14T12:54:25.986Z,96040.38
2018-02-14T12:56:53.551Z,96039.74
2018-02-14T12:59:21.152Z,96038.19
2018-02-14T13:01:48.780Z,96046.04
2018-02-14T13:04:16.369Z,96042.28
2018-02-14T13:06:43.977Z,96044.45
2018-02-14T13:09:11.945Z,96049.68
2018-02-14T13:11:39.697Z,96048.32
2018-02-14T13:14:07.295Z,96051.90
2018-02-14T13:16:34.857Z,96047.09
2018-02-14T13:19:02.459Z,96048.28
2018-02-14T13:21:30.570Z,96053.06
2018-02-14T13:23:58.169Z,96055.08
2018-02-14T13:26:25.769Z,96049.20
2018-02-14T13:28:53.399Z,96057.97
2018-02-14T13:31:21.000Z,96046.92
2018-02-14T13:33:48.581Z,96053.86
2018-02-14T13:36:16.154Z,96052.26
2018-02-14T13:38:43.733Z,96058.55
2018-02-14T13:41:11.739Z,96053.62
2018-02-14T13:43:39.324Z,96054.35
2018-02-14T13:46:06.909Z,96059.31
2018-02-14T13:48:34.484Z,96058.77
2018-02-14T13:51:02.059Z,96066.28
2018-02-14T13:53:29.674Z,96065.36
2018-02-14T13:55:58.458Z,96077.56
2018-02-14T13:58:26.117Z,96071.28
2018-02-14T14:00:53.712Z,96072.59
2018-02-14T14:03:21.278Z,96073.38
2018-02-14T14:05:48.862Z,96069.24
2018-02-14T14:08:16.483Z,96069.88
2018-02-14T14:10:44.052Z,96074.43
2018-02-14T14:13:12.086Z,96069.71
2018-02-14T14:15:39.676Z,96079.75
2018-02-14T14:18:07.344Z,96067.66
2018-02-14T14:20:34.957Z,96080.38
2018-02-14T14:23:02.563Z,96080.52
2018-02-14T14:25:30.136Z,96085.48
2018-02-14T14:27:57.730Z,96088.64
2018-02-14T14:30:25.389Z,96088.53
2018-02-14T14:32:53.861Z,96099.63
2018-02-14T14:35:21.492Z,96093.61
2018-02-14T14:37:49.105Z,96091.37
2018-02-14T14:40:16.706Z,96103.05
2018-02-14T14:42:44.317Z,96108.52
2018-02-14T14:45:12.225Z,96089.70
2018-02-14T14:47:39.844Z,96095.75
2018-02-14T14:50:07.444Z,96104.02
2018-02-14T14:52:35.019Z,96103.31
2018-02-14T14:55:02.638Z,96115.91
2018-02-14T14:57:30.218Z,96113.94
2018-02-14T14:59:57.782Z,96118.25
2018-02-14T15:02:25.378Z,96125.22
2018-02-14T15:04:53.351Z,96130.04
2018-02-14T15:07:20.986Z,96131.98
2018-02-14T15:09:48.608Z,96135.33
2018-02-14T15:12:16.232Z,96137.89
2018-02-14T15:14:43.831Z,96142.65
2018-02-14T15:17:12.724Z,96147.84
2018-02-14T15:19:40.936Z,96146.63
2018-02-14T15:22:08.627Z,96151.41
2018-02-14T15:24:36.208Z,96150.69
2018-02-14T15:27:04.273Z,96145.19
2018-02-14T15:29:31.832Z,96152.91
2018-02-14T15:31:59.416Z,96154.73
2018-02-14T15:34:27.314Z,96162.17
2018-02-14T15:36:54.902Z,96167.22
2018-02-14T15:39:23.375Z,96164.90
2018-02-14T15:41:51.030Z,96161.89
2018-02-14T15:44:18.627Z,96160.43
2018-02-14T15:46:46.230Z,96161.80
2018-02-14T15:49:14.862Z,96169.69
2018-02-14T15:51:43.045Z,96172.98
2018-02-14T15:54:10.609Z,96180.05
2018-02-14T15:56:38.233Z,96183.12
2018-02-14T15:59:05.854Z,96182.84
2018-02-14T16:01:33.450Z,96179.72
2018-02-14T16:04:01.044Z,96178.17
2018-02-14T16:06:28.638Z,96187.28
2018-02-14T16:08:56.316Z,96193.66
2018-02-14T16:11:24.035Z,96193.77
2018-02-14T16:13:51.625Z,96190.13
2018-02-14T16:16:19.183Z,96198.76
2018-02-14T16:18:46.765Z,96202.88
2018-02-14T16:21:14.577Z,96203.42
2018-02-14T16:23:42.249Z,96213.97
2018-02-14T16:26:09.866Z,96208.39
2018-02-14T16:28:37.449Z,96211.57
2018-02-14T16:31:05.089Z,96216.31
2018-02-14T16:33:34.442Z,96218.22
2018-02-14T16:36:02.161Z,96225.08
2018-02-14T16:38:31.722Z,96225.50
2018-02-14T16:40:59.353Z,96229.63
2018-02-14T16:43:40.382Z,96231.50
2018-02-14T16:46:07.988Z,96231.31
2018-02-14T16:48:35.571Z,96235.32
2018-02-14T16:51:03.189Z,96236.83
2018-02-14T16:53:31.531Z,96241.78
2018-02-14T16:55:59.161Z,96250.29
2018-02-14T16:58:26.756Z,96250.78
2018-02-14T17:00:54.316Z,96251.84
2018-02-14T17:03:22.422Z,96256.52
2018-02-14T17:05:50.025Z,96254.48
2018-02-14T17:08:19.945Z,96259.73
2018-02-14T17:10:47.557Z,96259.81
2018-02-14T17:13:15.523Z,96260.33
2018-02-14T17:15:43.130Z,96259.66
2018-02-14T17:18:10.729Z,96256.96
2018-02-14T17:20:38.311Z,96261.72
2018-02-14T17:23:06.226Z,96256.43
2018-02-14T17:25:33.848Z,96259.89
2018-02-14T17:28:01.437Z,96256.50
2018-02-14T17:30:29.073Z,96259.48
2018-02-14T17:32:56.800Z,96263.38
2018-02-14T17:35:24.518Z,96261.17
2018-02-14T17:37:52.255Z,96262.70
2018-02-14T17:40:19.964Z,96269.66
2018-02-14T17:42:47.543Z,96269.36
2018-02-14T17:45:15.366Z,96277.67
2018-02-14T17:47:43.036Z,96278.46
2018-02-14T17:50:10.765Z,96279.70
2018-02-14T17:52:38.322Z,96285.87
2018-02-14T17:55:06.436Z,96280.80
2018-02-14T17:57:34.117Z,96285.20
2018-02-14T18:00:01.713Z,96291.33
2018-02-14T18:02:29.389Z,96295.02
2018-02-14T18:04:58.193Z,96299.05
2018-02-14T18:07:26.035Z,96305.59
2018-02-14T18:09:53.620Z,96312.92
2018-02-14T18:12:21.343Z,96312.18
2018-02-14T18:14:48.953Z,96315.24
2018-02-14T18:17:16.744Z,96321.22
2018-02-14T18:19:44.409Z,96324.66
2018-02-14T18:22:12.032Z,96322.27
2018-02-14T18:24:39.621Z,96324.95
2018-02-14T18:27:12.808Z,96318.42
2018-02-14T18:29:40.377Z,96327.08
2018-02-14T18:32:07.989Z,96334.68
2018-02-14T18:34:35.595Z,96333.17
2018-02-14T18:37:03.144Z,96332.50
2018-02-14T18:39:30.901Z,96329.58
2018-02-14T18:41:58.486Z,96332.92
2018-02-14T18:44:26.089Z,96332.92
2018-02-14T18:46:53.672Z,96335.05
2018-02-14T18:49:22.378Z,96346.80
2018-02-14T18:51:50.261Z,96341.44
2018-02-14T18:54:17.850Z,96349.80
2018-02-14T18:56:45.424Z,96347.70
2018-02-14T18:59:13.442Z,96341.18
2018-02-14T19:01:41.438Z,96349.12
2018-02-14T19:04:09.241Z,96351.58
2018-02-14T19:06:36.842Z,96349.03
2018-02-14T19:09:05.029Z,96356.59
2018-02-14T19:11:35.176Z,96353.26
2018-02-14T19:14:02.800Z,96354.20
2018-02-14T19:16:32.133Z,96353.48
2018-02-14T19:19:00.407Z,96358.16
2018-02-14T19:21:28.502Z,96356.59
2018-02-14T19:23:56.201Z,96353.37
2018-02-14T19:26:23.905Z,96355.00
2018-02-14T19:28:52.676Z,96359.67
2018-02-14T19:31:20.570Z,96360.16
2018-02-14T19:33:48.385Z,96370.19
2018-02-14T19:36:16.086Z,96375.66
2018-02-14T19:38:43.667Z,96377.02
2018-02-14T19:41:11.693Z,96377.47
2018-02-14T19:43:40.371Z,96384.15
2018-02-14T19:46:07.964Z,96386.34
2018-02-14T19:48:35.540Z,96388.50
2018-02-14T19:51:05.830Z,96387.31
2018-02-14T19:53:33.482Z,96387.39
2018-02-14T19:56:01.068Z,96388.29
2018-02-14T19:58:28.748Z,96389.19
2018-02-14T20:00:56.401Z,96390.55
2018-02-14T20:03:24.823Z,96399.77
2018-02-14T20:05:53.622Z,96406.89
2018-02-14T20:08:23.003Z,96405.67
2018-02-14T20:10:51.094Z,96413.92
2018-02-14T20:13:19.429Z,96414.75
2018-02-14T20:15:47.825Z,96421.30
2018-02-14T20:18:15.653Z,96421.69
2018-02-14T20:20:43.229Z,96427.95
2018-02-14T20:23:12.261Z,96427.95
2018-02-14T20:25:40.951Z,96424.96
2018-02-14T20:28:08.589Z,96429.11
2018-02-14T20:30:36.173Z,96436.23
2018-02-14T20:33:03.825Z,96434.63
2018-02-14T20:35:33.707Z,96437.10
2018-02-14T20:38:01.369Z,96442.88
2018-02-14T20:40:29.329Z,96440.73
2018-02-14T20:42:57.030Z,96444.48
2018-02-14T20:45:24.739Z,96442.02
2018-02-14T20:47:52.354Z,96441.18
2018-02-14T20:50:19.993Z,96440.28
2018-02-14T20:52:47.651Z,96434.88
2018-02-14T20:55:15.819Z,96437.88
2018-02-14T20:57:43.811Z,96439.89
2018-02-14T21:00:11.428Z,96436.55
2018-02-14T21:02:39.026Z,96437.36
2018-02-14T21:05:07.048Z,96436.59
2018-02-14T21:07:35.562Z,96442.02
2018-02-14T21:10:03.217Z,96443.69
2018-02-14T21:12:30.781Z,96447.38
2018-02-14T21:14:58.350Z,96457.20
2018-02-14T21:20:41.729Z,96459.50
2018-02-14T21:23:09.677Z,96456.02
2018-02-14T21:25:37.664Z,96455.07
2018-02-14T21:28:05.660Z,96456.67
2018-02-14T21:30:33.232Z,96460.96
2018-02-14T21:33:00.896Z,96460.96
2018-02-14T21:35:28.792Z,96460.27
2018-02-14T21:37:56.460Z,96460.75
2018-02-14T21:40:25.271Z,96456.91
2018-02-14T21:42:54.633Z,96451.80
2018-02-14T21:45:22.565Z,96456.16
2018-02-14T21:47:50.200Z,96458.50
2018-02-14T21:50:17.975Z,96461.80
2018-02-14T21:52:45.583Z,96460.52
2018-02-14T21:55:13.303Z,96462.22
2018-02-14T21:57:41.072Z,96458.05
2018-02-14T22:00:08.700Z,96456.37
2018-02-14T22:02:36.286Z,96455.40
2018-02-14T22:05:03.900Z,96465.95
2018-02-14T22:07:31.598Z,96467.69
2018-02-14T22:09:59.197Z,96471.69
2018-02-14T22:12:26.784Z,96468.45
2018-02-14T22:14:54.429Z,96467.22
2018-02-14T22:17:22.044Z,96463.66
2018-02-14T22:19:49.672Z,96462.57
2018-02-14T22:22:17.246Z,96456.82
2018-02-14T22:24:44.872Z,96457.36
2018-02-14T22:27:12.781Z,96455.89
2018-02-14T22:29:40.501Z,96448.18
2018-02-14T22:32:08.180Z,96452.03
2018-02-14T22:34:35.768Z,96455.08
2018-02-14T22:37:04.111Z,96455.53
2018-02-14T22:39:31.943Z,96456.01
2018-02-14T22:41:59.536Z,96462.69
2018-02-14T22:44:27.129Z,96469.39
2018-02-14T22:46:54.699Z,96460.23
2018-02-14T22:49:22.317Z,96459.82
2018-02-14T22:51:49.913Z,96458.59
2018-02-14T22:54:17.722Z,96456.55
2018-02-14T22:56:45.286Z,96455.32
2018-02-14T22:59:13.352Z,96456.27
2018-02-14T23:01:42.021Z,96454.22
2018-02-14T23:04:12.923Z,96462.09
2018-02-14T23:06:43.190Z,96457.47
2018-02-14T23:09:12.101Z,96457.88
2018-02-14T23:11:41.725Z,96458.69
2018-02-14T23:14:10.241Z,96457.77
2018-02-14T23:16:37.866Z,96456.03
2018-02-14T23:19:05.567Z,96458.86
2018-02-14T23:21:34.335Z,96457.87
2018-02-14T23:24:01.992Z,96460.35
2018-02-14T23:26:31.944Z,96460.73
2018-02-14T23:28:59.867Z,96454.47
2018-02-14T23:31:27.441Z,96452.06
2018-02-14T23:33:55.104Z,96451.97
2018-02-14T23:36:22.883Z,96436.63
2018-02-14T23:38:50.664Z,96438.00
2018-02-14T23:41:21.214Z,96440.86
2018-02-14T23:43:49.129Z,96444.70
2018-02-14T23:46:16.871Z,96434.52
2018-02-14T23:48:44.663Z,96431.39
2018-02-14T23:51:15.159Z,96434.93
2018-02-14T23:53:42.901Z,96438.91
2018-02-14T23:56:10.758Z,96439.05
2018-02-14T23:58:38.371Z,96447.91
